This is the latest recevied weather packets stored in our database for station/object N9DMT-13. If no packets are shown the sender has not sent any weather packets the latest 10 day(s).
| Time | Temp. | Humidity | Pressure | Rain* | Wind** | Luminosity | Snow |
|---|---|---|---|---|---|---|---|
| 1777488369 | 10° C | 60% | 984.7 hPa | 0 mm | - | - | - |
| 1777488068 | 10° C | 64% | 984.5 hPa | 0 mm | - | - | - |
| 1777487768 | 9.44° C | 66% | 984.5 hPa | 0 mm | - | - | - |
| 1777487467 | 8.89° C | 67% | 984.7 hPa | 0 mm | - | - | - |
| 1777487166 | 8.89° C | 68% | 984.6 hPa | 0 mm | - | - | - |
| 1777486865 | 8.89° C | 69% | 984.7 hPa | 0 mm | - | - | - |
| 1777486565 | 8.89° C | 70% | 984.8 hPa | 0 mm | - | - | - |
| 1777486264 | 7.78° C | 74% | 984.8 hPa | 0 mm | - | - | - |
| 1777485964 | 7.78° C | 73% | 985 hPa | 0 mm | - | - | - |
| 1777485663 | 7.78° C | 73% | 984.9 hPa | 0 mm | - | - | - |
| 1777485362 | 7.78° C | 73% | 984.8 hPa | 0 mm | - | - | - |
| 1777485061 | 7.78° C | 73% | 984.6 hPa | 0 mm | - | - | - |
| 1777484761 | 7.78° C | 74% | 984.8 hPa | 0 mm | - | - | - |
| 1777484460 | 7.78° C | 71% | 984.6 hPa | 0 mm | - | - | - |
| 1777484159 | 7.78° C | 69% | 984.6 hPa | 0 mm | - | - | - |
| 1777483858 | 8.33° C | 69% | 984.5 hPa | 0 mm | - | - | - |
| 1777483558 | 8.89° C | 65% | 984.6 hPa | 0 mm | - | - | - |
| 1777483257 | 8.89° C | 65% | 984.3 hPa | 0 mm | - | - | - |
| 1777482957 | 9.44° C | 63% | 984.4 hPa | 0 mm | - | - | - |
| 1777482656 | 10° C | 62% | 984.3 hPa | 0 mm | - | - | - |
| 1777482355 | 10° C | 61% | 984.2 hPa | 0 mm | - | - | - |
| 1777482054 | 9.44° C | 63% | 984.2 hPa | 0 mm | - | - | - |
| 1777481754 | 9.44° C | 61% | 984.4 hPa | 0 mm | - | - | - |
| 1777481453 | 9.44° C | 62% | 984.3 hPa | 0 mm | - | - | - |
| 1777481152 | 10° C | 58% | 984.2 hPa | 0 mm | - | - | - |
* Rain latest hour (hover to see other rain measurements)
** Current wind speed in m/s (hover to see current wind gust speed)